Flight Track Log - Related Links

Times and Time Zones

All times are in EDT time to prevent confusion due to time zone crossing. See the EJA982 flight status page for this flight to view local times or setup timezone preferences in your user account.

Time Position Orientation Groundspeed Altitude Reporting Facility
EDT Latitude Longitude Course Direction KTS MPH feet Rate Location/Type
Sat 03:40:32 AM 36.0536 -115.1836 221° Southwest 202 232 4,300  Level Los Angeles Center
Sat 03:41:45 AM 35.9922 -115.2489 221° Southwest 256 295 7,300 2,789 Climbing Los Angeles Center
Sat 03:42:54 AM 35.9319 -115.3067 218° Southwest 290 334 10,900 3,323 Climbing Los Angeles Center
Sat 03:43:55 AM 35.8406 -115.2969 175° South 319 367 14,500 3,025 Climbing Los Angeles Center
Sat 03:44:55 AM 35.7361 -115.2944 179° South 357 411 17,000 2,579 Climbing Los Angeles Center
Sat 03:45:56 AM 35.6308 -115.3564 206° Southwest 421 484 19,700 2,479 Climbing Los Angeles Center
Sat 03:46:56 AM 35.5519 -115.4642 228° Southwest 423 487 22,000 2,281 Climbing Los Angeles Center
Sat 03:47:57 AM 35.4642 -115.5822 228° Southwest 414 476 24,300 2,132 Climbing Los Angeles Center
Sat 03:48:57 AM 35.3908 -115.6817 228° Southwest 398 458 26,300 1,785 Climbing Los Angeles Center
Sat 03:49:58 AM 35.3189 -115.7758 227° Southwest 384 442 27,900 843 Climbing Los Angeles Center
Sat 03:50:58 AM 35.2444 -115.8778 228° Southwest 396 456 28,000 50 Climbing Los Angeles Center
Sat 03:51:59 AM 35.1606 -115.9872 227° Southwest 432 497 28,000  Level Los Angeles Center
Sat 03:53:11 AM 35.0733 -116.1003 227° Southwest 453 521 28,000  Level Los Angeles Center
Sat 03:54:12 AM 34.9664 -116.2411 227° Southwest 468 539 28,000  Level Los Angeles Center
Sat 03:55:12 AM 34.8775 -116.3589 227° Southwest 471 542 28,000  Level Los Angeles Center
Sat 03:56:13 AM 34.7869 -116.4750 226° Southwest 472 543 28,000  Level Los Angeles Center
Sat 03:57:13 AM 34.6931 -116.5906 225° Southwest 477 549 28,000  Level Los Angeles Center
Sat 03:58:13 AM 34.5956 -116.7086 225° Southwest 490 564 28,000 -99 Level Los Angeles Center
Sat 03:59:14 AM 34.4975 -116.8269 225° Southwest 494 568 27,800 -1,339 Descending Los Angeles Center
Sat 04:00:14 AM 34.4022 -116.9442 225° Southwest 487 560 25,300 -2,500 Descending Los Angeles Center
Sat 04:01:14 AM 34.3072 -117.0586 225° Southwest 482 555 22,800 -2,479 Descending Los Angeles Center
Sat 04:02:15 AM 34.2158 -117.1697 225° Southwest 466 536 20,300 -1,884 Descending Los Angeles Center
Sat 04:03:15 AM 34.1358 -117.2692 226° Southwest 435 501 19,000 -913 Descending Los Angeles Center
Sat 04:03:47 AM 34.0833 -117.3333 225° Southwest 445 512 18,900 -2,510 Descending Southern California TRACON
Sat 04:04:53 AM 34.0167 -117.5000 244° Southwest 446 513 14,900 -3,238 Descending Southern California TRACON
Sat 04:05:53 AM 34.0167 -117.6167 270° West 484 557 12,100 -1,450 Descending Southern California TRACON
Sat 04:06:53 AM 34.0000 -117.7500 261° West 385 443 12,000 -104 Descending Southern California TRACON
Sat 04:07:48 AM 33.9833 -117.8667 260° West 396 456 11,900 -843 Descending Southern California TRACON
Sat 04:08:54 AM 33.9833 -118.0000 270° West 357 411 10,300 -762 Descending Southern California TRACON
Sat 04:09:54 AM 33.9667 -118.1167 260° West 377 434 10,300  Level Southern California TRACON
Sat 04:10:54 AM 33.9833 -118.2500 279° West 377 434 10,300 -500 Level Southern California TRACON
Sat 04:11:54 AM 34.0000 -118.3667 280° West 311 358 9,300 -1,250 Descending Southern California TRACON
Sat 04:12:54 AM 34.0167 -118.4500 284° West 296 341 7,800 -1,524 Descending Southern California TRACON
Sat 04:14:00 AM 34.0167 -118.5667 270° West 266 306 6,100 -1,512 Descending Southern California TRACON
Sat 04:15:01 AM 34.0167 -118.6500 270° West 267 307 4,600 -1,465 Descending Southern California TRACON
Sat 04:16:07 AM 33.9500 -118.6500 180° South 272 313 3,000 -1,238 Descending Southern California TRACON
Sat 04:17:07 AM 33.9333 -118.5667 104° East 237 273 2,000 -851 Descending Southern California TRACON
Sat 04:18:21 AM 33.9442 -118.4828 81° East 190 219 1,100 -716 Descending Los Angeles Center
Sat 04:19:21 AM 33.9472 -118.4458 84° East 157 181 400 -700 Descending Los Angeles Center

Login

Don't have an account? Register now (free) for customized features, flight alerts, and more!